createdAt,value
2018-10-03T00:00:01.058Z,93.08
2018-10-03T00:01:01.058Z,93.36
2018-10-03T00:02:01.070Z,93.08
2018-10-03T00:03:01.099Z,93.08
2018-10-03T00:04:01.102Z,93.08
2018-10-03T00:05:01.127Z,92.98
2018-10-03T00:06:01.139Z,93.27
2018-10-03T00:07:01.162Z,92.65
2018-10-03T00:08:01.174Z,92.32
2018-10-03T00:09:01.193Z,92.60
2018-10-03T00:10:01.213Z,92.50
2018-10-03T00:11:01.222Z,92.60
2018-10-03T00:12:01.237Z,92.41
2018-10-03T00:13:01.252Z,92.69
2018-10-03T00:14:01.273Z,91.78
2018-10-03T00:15:01.287Z,91.74
2018-10-03T00:16:01.304Z,91.64
2018-10-03T00:17:01.316Z,91.74
2018-10-03T00:18:01.348Z,92.98
2018-10-03T00:19:01.351Z,92.69
2018-10-03T00:20:01.366Z,92.60
2018-10-03T00:21:01.388Z,93.74
2018-10-03T00:22:01.400Z,94.12
2018-10-03T00:23:01.433Z,93.08
2018-10-03T00:24:01.441Z,92.60
2018-10-03T00:25:01.453Z,93.46
2018-10-03T00:26:01.475Z,93.84
2018-10-03T00:27:01.480Z,93.17
2018-10-03T00:28:01.501Z,92.12
2018-10-03T00:29:01.523Z,91.46
2018-10-03T00:30:01.538Z,91.36
2018-10-03T00:31:01.553Z,92.22
2018-10-03T00:32:01.565Z,92.32
2018-10-03T00:33:01.583Z,92.12
2018-10-03T00:34:01.606Z,92.69
2018-10-03T00:35:01.613Z,92.88
2018-10-03T00:36:01.627Z,92.88
2018-10-03T00:37:01.653Z,92.65
2018-10-03T00:38:01.662Z,93.46
2018-10-03T00:39:01.680Z,94.03
2018-10-03T00:40:01.706Z,94.89
2018-10-03T00:41:01.732Z,94.03
2018-10-03T00:42:01.730Z,93.36
2018-10-03T00:43:01.757Z,93.84
2018-10-03T00:44:01.771Z,94.22
2018-10-03T00:45:01.777Z,94.41
2018-10-03T00:46:01.800Z,94.89
2018-10-03T00:47:01.813Z,95.27
2018-10-03T00:48:01.846Z,94.98
2018-10-03T00:49:01.852Z,95.17
2018-10-03T00:50:01.861Z,95.27
2018-10-03T00:51:01.898Z,94.32
2018-10-03T00:52:01.893Z,94.12
2018-10-03T00:53:01.915Z,93.84
2018-10-03T00:54:01.930Z,92.98
2018-10-03T00:55:01.943Z,92.88
2018-10-03T00:56:01.966Z,93.17
2018-10-03T00:57:01.981Z,92.79
2018-10-03T00:58:01.997Z,93.55
2018-10-03T00:59:02.007Z,94.41
2018-10-03T01:00:02.025Z,94.03
2018-10-03T01:01:02.041Z,94.22
2018-10-03T01:02:02.059Z,93.93
2018-10-03T01:03:02.072Z,93.27
2018-10-03T01:04:02.096Z,93.36
2018-10-03T01:05:02.111Z,92.88
2018-10-03T01:06:02.128Z,93.93
2018-10-03T01:07:02.154Z,92.98
2018-10-03T01:08:02.175Z,93.36
2018-10-03T01:09:02.174Z,92.98
2018-10-03T01:10:02.189Z,93.84
2018-10-03T01:11:02.207Z,93.55
2018-10-03T01:12:02.222Z,92.60
2018-10-03T01:13:02.242Z,91.93
2018-10-03T01:14:02.255Z,92.60
2018-10-03T01:15:02.280Z,93.36
2018-10-03T01:16:02.312Z,92.98
2018-10-03T01:17:02.319Z,92.60
2018-10-03T01:18:02.342Z,92.32
2018-10-03T01:19:02.345Z,93.65
2018-10-03T01:20:02.356Z,94.17
2018-10-03T01:21:02.381Z,93.74
2018-10-03T01:22:02.388Z,93.88
2018-10-03T01:23:02.410Z,93.41
2018-10-03T01:24:02.420Z,93.17
2018-10-03T01:25:02.452Z,92.69
2018-10-03T01:26:02.461Z,91.83
2018-10-03T01:27:02.471Z,92.32
2018-10-03T01:28:02.490Z,91.93
2018-10-03T01:29:02.511Z,92.17
2018-10-03T01:30:02.527Z,92.60
2018-10-03T01:31:02.532Z,92.22
2018-10-03T01:32:02.572Z,92.12
2018-10-03T01:33:02.577Z,91.93
2018-10-03T01:34:02.589Z,92.12
2018-10-03T01:35:02.604Z,91.83
2018-10-03T01:36:02.617Z,91.74
2018-10-03T01:37:02.637Z,91.74
2018-10-03T01:38:02.664Z,91.36
2018-10-03T01:39:02.677Z,90.88
2018-10-03T01:40:02.686Z,90.69
2018-10-03T01:41:02.700Z,91.17
2018-10-03T01:42:02.719Z,90.69
2018-10-03T01:43:02.734Z,91.74
2018-10-03T01:44:02.756Z,91.74
2018-10-03T01:45:02.766Z,90.88
2018-10-03T01:46:02.785Z,90.69
2018-10-03T01:47:02.800Z,91.17
2018-10-03T01:48:02.827Z,90.59
2018-10-03T01:49:02.830Z,90.98
2018-10-03T01:50:02.849Z,91.36
2018-10-03T01:51:02.863Z,91.64
2018-10-03T01:52:02.880Z,91.64
2018-10-03T01:53:02.899Z,92.69
2018-10-03T01:54:02.924Z,92.32
2018-10-03T01:55:02.929Z,91.64
2018-10-03T01:56:02.942Z,91.46
2018-10-03T01:57:02.960Z,91.64
2018-10-03T01:58:02.981Z,91.07
2018-10-03T01:59:02.998Z,91.07
2018-10-03T02:00:03.022Z,90.64
2018-10-03T02:01:03.029Z,90.73
2018-10-03T02:02:03.047Z,90.69
2018-10-03T02:03:03.057Z,91.27
2018-10-03T02:04:03.092Z,91.46
2018-10-03T02:05:03.093Z,92.69
2018-10-03T02:06:03.122Z,91.46
2018-10-03T02:07:03.144Z,91.64
2018-10-03T02:08:03.143Z,92.41
2018-10-03T02:09:03.166Z,93.27
2018-10-03T02:10:03.178Z,93.08
2018-10-03T02:11:03.202Z,93.79
2018-10-03T02:12:03.209Z,93.46
2018-10-03T02:13:03.227Z,93.27
2018-10-03T02:14:03.246Z,92.88
2018-10-03T02:15:03.257Z,92.79
2018-10-03T02:16:03.275Z,93.36
2018-10-03T02:17:03.354Z,92.98
2018-10-03T02:18:03.306Z,92.50
2018-10-03T02:19:03.335Z,92.98
2018-10-03T02:20:03.339Z,92.60
2018-10-03T02:21:03.355Z,92.12
2018-10-03T02:22:03.371Z,93.46
2018-10-03T02:23:03.393Z,93.08
2018-10-03T02:24:03.423Z,92.50
2018-10-03T02:25:03.420Z,92.60
2018-10-03T02:26:03.437Z,93.08
2018-10-03T02:27:03.455Z,93.93
2018-10-03T02:28:03.474Z,94.56
2018-10-03T02:29:03.487Z,94.84
2018-10-03T02:30:03.525Z,94.74
2018-10-03T02:31:03.518Z,93.65
2018-10-03T02:32:03.535Z,93.17
2018-10-03T02:33:03.555Z,92.69
2018-10-03T02:34:03.570Z,93.27
2018-10-03T02:35:03.585Z,92.98
2018-10-03T02:36:03.606Z,92.50
2018-10-03T02:37:03.619Z,92.50
2018-10-03T02:38:03.636Z,92.12
2018-10-03T02:39:03.654Z,92.50
2018-10-03T02:40:03.670Z,91.74
2018-10-03T02:41:03.682Z,91.83
2018-10-03T02:42:03.703Z,91.83
2018-10-03T02:43:03.727Z,91.55
2018-10-03T02:44:03.733Z,91.36
2018-10-03T02:45:03.759Z,91.17
2018-10-03T02:46:03.772Z,91.27
2018-10-03T02:47:03.779Z,91.36
2018-10-03T02:48:03.801Z,91.93
2018-10-03T02:49:03.818Z,92.41
2018-10-03T02:50:03.844Z,92.41
2018-10-03T02:51:03.848Z,92.22
2018-10-03T02:52:03.868Z,92.22
2018-10-03T02:53:03.886Z,92.50
2018-10-03T02:54:03.916Z,91.74
2018-10-03T02:55:03.913Z,91.83
2018-10-03T02:56:03.930Z,91.64
2018-10-03T02:57:03.983Z,92.41
2018-10-03T02:58:04.017Z,92.12
2018-10-03T02:59:03.986Z,91.46
2018-10-03T03:00:03.997Z,91.50
2018-10-03T03:01:04.017Z,92.03
2018-10-03T03:02:04.033Z,91.64
2018-10-03T03:03:04.050Z,91.36
2018-10-03T03:04:04.061Z,91.21
2018-10-03T03:05:04.084Z,90.93
2018-10-03T03:06:04.097Z,90.73
2018-10-03T03:07:04.120Z,91.69
2018-10-03T03:08:04.128Z,91.69
2018-10-03T03:09:04.176Z,92.03
2018-10-03T03:10:04.167Z,91.88
2018-10-03T03:11:04.176Z,91.50
2018-10-03T03:12:04.207Z,91.55
2018-10-03T03:13:04.216Z,91.83
2018-10-03T03:14:04.225Z,92.17
2018-10-03T03:15:04.245Z,91.69
2018-10-03T03:16:04.261Z,91.64
2018-10-03T03:17:04.278Z,91.60
2018-10-03T03:18:04.311Z,91.46
2018-10-03T03:19:04.312Z,92.17
2018-10-03T03:20:04.329Z,91.98
2018-10-03T03:21:04.347Z,91.98
2018-10-03T03:22:04.360Z,91.60
2018-10-03T03:23:04.386Z,92.07
2018-10-03T03:24:04.395Z,91.69
2018-10-03T03:25:04.415Z,91.12
2018-10-03T03:26:04.423Z,91.98
2018-10-03T03:27:04.453Z,91.88
2018-10-03T03:28:04.458Z,91.69
2018-10-03T03:29:04.477Z,92.17
2018-10-03T03:30:04.491Z,92.60
2018-10-03T03:31:04.524Z,93.41
2018-10-03T03:32:04.545Z,92.93
2018-10-03T03:33:04.540Z,92.83
2018-10-03T03:34:04.559Z,92.36
2018-10-03T03:35:04.580Z,93.65
2018-10-03T03:36:04.591Z,93.51
2018-10-03T03:37:04.610Z,92.26
2018-10-03T03:38:04.629Z,93.02
2018-10-03T03:39:04.668Z,93.31
2018-10-03T03:40:04.657Z,93.22
2018-10-03T03:41:04.678Z,93.41
2018-10-03T03:42:04.699Z,92.74
2018-10-03T03:43:04.710Z,92.83
2018-10-03T03:44:04.722Z,93.12
2018-10-03T03:45:04.746Z,93.98
2018-10-03T03:46:04.757Z,94.12
2018-10-03T03:47:04.784Z,93.88
2018-10-03T03:48:04.796Z,94.07
2018-10-03T03:49:04.810Z,93.51
2018-10-03T03:50:04.827Z,93.60
2018-10-03T03:51:04.852Z,93.70
2018-10-03T03:52:04.859Z,94.07
2018-10-03T03:53:04.875Z,94.36
2018-10-03T03:54:04.898Z,93.98
2018-10-03T03:55:04.918Z,93.70
2018-10-03T03:56:04.929Z,94.17
2018-10-03T03:57:04.944Z,95.27
2018-10-03T03:58:04.960Z,94.84
2018-10-03T03:59:04.975Z,94.74
2018-10-03T04:00:04.990Z,94.84
2018-10-03T04:01:05.014Z,94.74
2018-10-03T04:02:05.033Z,94.74
2018-10-03T04:03:05.038Z,94.17
2018-10-03T04:04:05.061Z,94.07
2018-10-03T04:05:05.075Z,93.70
2018-10-03T04:06:05.091Z,93.26
2018-10-03T04:07:05.108Z,93.02
2018-10-03T04:08:05.129Z,93.60
2018-10-03T04:09:05.149Z,94.36
2018-10-03T04:10:05.191Z,95.03
2018-10-03T04:11:05.183Z,95.22
2018-10-03T04:12:05.190Z,95.70
2018-10-03T04:13:05.208Z,95.12
2018-10-03T04:14:05.224Z,95.22
2018-10-03T04:15:05.258Z,95.03
2018-10-03T04:16:05.262Z,95.41
2018-10-03T04:17:05.289Z,95.32
2018-10-03T04:18:05.290Z,95.51
2018-10-03T04:19:05.309Z,95.61
2018-10-03T04:20:05.329Z,95.32
2018-10-03T04:21:05.347Z,96.17
2018-10-03T04:22:05.357Z,95.98
2018-10-03T04:23:05.382Z,95.51
2018-10-03T04:24:05.398Z,94.84
2018-10-03T04:25:05.409Z,94.93
2018-10-03T04:26:05.426Z,95.61
2018-10-03T04:27:05.446Z,95.12
2018-10-03T04:28:05.464Z,94.79
2018-10-03T04:29:05.479Z,94.98
2018-10-03T04:30:05.504Z,94.84
2018-10-03T04:31:05.507Z,95.51
2018-10-03T04:32:05.530Z,95.51
2018-10-03T04:33:05.549Z,95.03
2018-10-03T04:34:05.562Z,94.70
2018-10-03T04:35:05.582Z,94.56
2018-10-03T04:36:05.592Z,95.41
2018-10-03T04:37:05.615Z,94.79
2018-10-03T04:38:05.630Z,94.79
2018-10-03T04:39:05.649Z,94.22
2018-10-03T04:40:05.665Z,94.12
2018-10-03T04:41:05.686Z,93.84
2018-10-03T04:42:05.775Z,93.84
2018-10-03T04:43:05.734Z,94.41
2018-10-03T04:44:05.727Z,95.12
2018-10-03T04:45:05.748Z,94.74
2018-10-03T04:46:05.769Z,94.89
2018-10-03T04:47:05.780Z,94.51
2018-10-03T04:48:05.794Z,94.79
2018-10-03T04:49:05.911Z,95.12
2018-10-03T04:50:05.840Z,95.41
2018-10-03T04:51:05.850Z,94.70
2018-10-03T04:52:05.867Z,94.22
2018-10-03T04:53:05.879Z,94.41
2018-10-03T04:54:05.908Z,94.93
2018-10-03T04:55:05.911Z,95.32
2018-10-03T04:56:05.933Z,95.12
2018-10-03T04:57:05.948Z,95.56
2018-10-03T04:58:05.972Z,95.41
2018-10-03T04:59:05.990Z,95.32
2018-10-03T05:00:06.006Z,95.32
2018-10-03T05:01:06.016Z,95.12
2018-10-03T05:02:06.039Z,95.51
2018-10-03T05:03:06.052Z,95.79
2018-10-03T05:04:06.074Z,95.41
2018-10-03T05:05:06.092Z,95.22
2018-10-03T05:06:06.101Z,95.41
2018-10-03T05:07:06.122Z,95.41
2018-10-03T05:08:06.133Z,95.03
2018-10-03T05:09:06.330Z,95.51
2018-10-03T05:10:06.167Z,95.79
2018-10-03T05:11:06.194Z,95.03
2018-10-03T05:12:06.206Z,95.51
2018-10-03T05:13:06.215Z,95.70
2018-10-03T05:14:06.233Z,95.61
2018-10-03T05:15:06.252Z,96.08
2018-10-03T05:16:06.271Z,95.98
2018-10-03T05:17:06.291Z,95.61
2018-10-03T05:18:06.304Z,95.89
2018-10-03T05:19:06.322Z,95.70
2018-10-03T05:20:06.343Z,96.17
2018-10-03T05:21:06.353Z,96.56
2018-10-03T05:22:06.390Z,97.08
2018-10-03T05:23:06.389Z,97.27
2018-10-03T05:24:06.418Z,97.17
2018-10-03T05:25:06.421Z,97.75
2018-10-03T05:26:06.434Z,97.32
2018-10-03T05:27:06.453Z,95.70
2018-10-03T05:28:06.493Z,97.17
2018-10-03T05:29:06.524Z,96.84
2018-10-03T05:30:06.548Z,95.61
2018-10-03T05:31:06.552Z,95.22
2018-10-03T05:32:06.546Z,95.51
2018-10-03T05:33:06.559Z,95.70
2018-10-03T05:34:06.585Z,96.66
2018-10-03T05:35:06.593Z,96.61
2018-10-03T05:36:06.601Z,96.56
2018-10-03T05:37:06.619Z,96.17
2018-10-03T05:38:06.649Z,95.89
2018-10-03T05:39:06.655Z,95.75
2018-10-03T05:40:06.672Z,97.27
2018-10-03T05:41:06.692Z,97.85
2018-10-03T05:42:06.705Z,97.03
2018-10-03T05:43:06.727Z,97.22
2018-10-03T05:44:06.742Z,95.98
2018-10-03T05:45:06.757Z,95.79
2018-10-03T05:46:06.774Z,95.32
2018-10-03T05:47:06.787Z,95.79
2018-10-03T05:48:06.807Z,95.41
2018-10-03T05:49:06.824Z,94.56
2018-10-03T05:50:06.839Z,95.22
2018-10-03T05:51:06.867Z,94.74
2018-10-03T05:52:06.870Z,94.46
2018-10-03T05:53:06.896Z,94.93
2018-10-03T05:54:06.907Z,95.41
2018-10-03T05:55:06.919Z,95.03
2018-10-03T05:56:06.942Z,95.32
2018-10-03T05:57:06.961Z,94.93
2018-10-03T05:58:06.977Z,93.93
2018-10-03T05:59:06.988Z,93.17
2018-10-03T06:00:07.013Z,92.69
2018-10-03T06:01:07.026Z,92.69
2018-10-03T06:02:07.050Z,93.84
2018-10-03T06:03:07.057Z,94.03
2018-10-03T06:04:07.079Z,93.93
2018-10-03T06:05:07.096Z,94.22
2018-10-03T06:06:07.125Z,93.74
2018-10-03T06:07:07.175Z,93.46
2018-10-03T06:08:07.145Z,93.36
2018-10-03T06:09:07.168Z,92.69
2018-10-03T06:10:07.197Z,92.41
2018-10-03T06:11:07.194Z,91.83
2018-10-03T06:12:07.277Z,91.16
2018-10-03T06:13:07.234Z,91.26
2018-10-03T06:14:07.243Z,91.36
2018-10-03T06:15:07.261Z,92.02
2018-10-03T06:16:07.280Z,92.79
2018-10-03T06:17:07.293Z,91.55
2018-10-03T06:18:07.314Z,91.69
2018-10-03T06:19:07.337Z,89.45
2018-10-03T06:20:07.351Z,90.40
2018-10-03T06:21:07.365Z,91.16
2018-10-03T06:22:07.379Z,90.73
2018-10-03T06:23:07.408Z,90.78
2018-10-03T06:24:07.416Z,90.45
2018-10-03T06:25:07.434Z,89.49
2018-10-03T06:26:07.462Z,88.78
2018-10-03T06:27:07.488Z,88.92
2018-10-03T06:28:07.540Z,88.92
2018-10-03T06:29:07.549Z,88.92
2018-10-03T06:30:07.521Z,87.77
2018-10-03T06:31:07.535Z,87.34
2018-10-03T06:32:07.550Z,87.15
2018-10-03T06:33:07.595Z,86.67
2018-10-03T06:34:07.594Z,86.63
2018-10-03T06:35:07.617Z,86.38
2018-10-03T06:36:07.622Z,86.38
2018-10-03T06:37:07.645Z,87.20
2018-10-03T06:38:07.656Z,87.39
2018-10-03T06:39:07.674Z,87.68
2018-10-03T06:40:07.700Z,87.24
2018-10-03T06:41:07.715Z,87.05
2018-10-03T06:42:07.721Z,86.53
2018-10-03T06:43:07.746Z,87.58
2018-10-03T06:44:07.759Z,88.54
2018-10-03T06:45:07.777Z,88.15
2018-10-03T06:46:07.804Z,87.77
2018-10-03T06:47:07.816Z,87.48
2018-10-03T06:48:07.831Z,87.10
2018-10-03T06:49:07.843Z,87.68
2018-10-03T06:50:07.862Z,87.58
2018-10-03T06:51:07.889Z,86.67
2018-10-03T06:52:07.900Z,86.57
2018-10-03T06:53:07.917Z,86.72
2018-10-03T06:54:07.941Z,87.87
2018-10-03T06:55:07.948Z,87.53
2018-10-03T06:56:07.967Z,86.57
2018-10-03T06:57:08.161Z,86.86
2018-10-03T06:58:08.001Z,86.67
2018-10-03T06:59:08.028Z,85.77
2018-10-03T07:00:08.033Z,86.29
2018-10-03T07:01:08.062Z,86.67
2018-10-03T07:02:08.074Z,87.01
2018-10-03T07:03:08.087Z,87.77
2018-10-03T07:04:08.110Z,86.82
2018-10-03T07:05:08.121Z,86.67
2018-10-03T07:06:08.160Z,86.82
2018-10-03T07:07:08.153Z,86.57
2018-10-03T07:08:08.188Z,87.10
2018-10-03T07:09:08.200Z,86.96
2018-10-03T07:10:08.211Z,86.67
2018-10-03T07:11:08.230Z,86.19
2018-10-03T07:12:08.252Z,85.28
2018-10-03T07:13:08.343Z,85.47
2018-10-03T07:14:08.288Z,85.62
2018-10-03T07:15:08.314Z,86.67
2018-10-03T07:16:08.318Z,85.52
2018-10-03T07:17:08.335Z,85.28
2018-10-03T07:18:08.349Z,83.60
2018-10-03T07:19:08.368Z,82.17
2018-10-03T07:20:08.484Z,81.97
2018-10-03T07:21:08.406Z,81.15
2018-10-03T07:22:08.442Z,80.67
2018-10-03T07:23:08.444Z,79.66
2018-10-03T07:24:08.459Z,78.45
2018-10-03T07:25:08.483Z,76.25
2018-10-03T07:26:08.562Z,76.25
2018-10-03T07:27:08.523Z,75.87
2018-10-03T07:28:08.543Z,75.96
2018-10-03T07:29:08.555Z,75.52
2018-10-03T07:30:08.571Z,74.98
2018-10-03T07:31:08.591Z,74.16
2018-10-03T07:32:08.615Z,71.76
2018-10-03T07:33:08.648Z,71.03
2018-10-03T07:34:08.650Z,69.68
2018-10-03T07:35:08.668Z,69.43
2018-10-03T07:36:08.691Z,68.57
2018-10-03T07:37:08.712Z,67.58
2018-10-03T07:38:08.734Z,66.42
2018-10-03T07:39:08.748Z,64.85
2018-10-03T07:40:08.774Z,66.00
2018-10-03T07:41:08.804Z,65.43
2018-10-03T07:42:08.811Z,66.84
2018-10-03T07:43:08.832Z,67.10
2018-10-03T07:44:08.876Z,65.94
2018-10-03T07:45:08.877Z,65.17
2018-10-03T07:46:08.900Z,63.15
2018-10-03T07:47:08.925Z,62.96
2018-10-03T07:48:08.996Z,62.00
2018-10-03T07:49:08.969Z,62.81
2018-10-03T07:50:08.980Z,63.70
2018-10-03T07:51:09.013Z,64.37
2018-10-03T07:52:09.034Z,65.20
2018-10-03T07:53:09.054Z,65.23
2018-10-03T07:54:09.079Z,64.63
2018-10-03T07:55:09.088Z,63.48
2018-10-03T07:56:09.119Z,65.33
2018-10-03T07:57:09.134Z,66.67
2018-10-03T07:58:09.173Z,65.33
2018-10-03T07:59:09.285Z,61.22
2018-10-03T08:00:09.210Z,58.53
2018-10-03T08:01:09.237Z,58.37
2018-10-03T08:02:09.251Z,60.63
2018-10-03T08:03:09.262Z,61.58
2018-10-03T08:04:09.303Z,60.72
2018-10-03T08:05:09.323Z,59.41
2018-10-03T08:06:09.336Z,59.89
2018-10-03T08:07:09.351Z,59.99
2018-10-03T08:08:09.373Z,61.81
2018-10-03T08:09:09.393Z,60.85
2018-10-03T08:10:09.420Z,61.98
2018-10-03T08:11:09.435Z,62.71
2018-10-03T08:12:09.457Z,62.77
2018-10-03T08:13:09.485Z,62.52
2018-10-03T08:14:09.502Z,62.52
2018-10-03T08:15:09.532Z,61.84
2018-10-03T08:16:09.544Z,63.48
2018-10-03T08:17:09.574Z,64.47
2018-10-03T08:18:09.587Z,64.37
2018-10-03T08:19:09.602Z,65.14
2018-10-03T08:20:09.628Z,64.56
2018-10-03T08:21:09.660Z,65.20
2018-10-03T08:22:09.682Z,65.46
2018-10-03T08:23:09.697Z,65.30
2018-10-03T08:24:09.713Z,65.30
2018-10-03T08:25:09.725Z,65.30
2018-10-03T08:26:09.751Z,65.39
2018-10-03T08:27:09.803Z,65.39
2018-10-03T08:28:09.803Z,66.86
2018-10-03T08:29:09.833Z,66.86
2018-10-03T08:30:09.856Z,67.09
2018-10-03T08:31:09.850Z,67.09
2018-10-03T08:32:09.871Z,66.93
2018-10-03T08:33:09.921Z,66.06
2018-10-03T08:34:09.906Z,64.92
2018-10-03T08:35:09.934Z,66.32
2018-10-03T08:36:09.945Z,66.86
2018-10-03T08:37:09.973Z,66.71
2018-10-03T08:38:09.987Z,66.13
2018-10-03T08:39:10.002Z,67.25
2018-10-03T08:40:10.099Z,67.34
2018-10-03T08:41:10.041Z,66.71
2018-10-03T08:42:10.074Z,67.02
2018-10-03T08:43:10.087Z,65.75
2018-10-03T08:44:10.105Z,66.03
2018-10-03T08:45:10.120Z,66.99
2018-10-03T08:46:10.138Z,66.71
2018-10-03T08:47:10.162Z,65.97
2018-10-03T08:48:10.179Z,66.32
2018-10-03T08:49:10.199Z,66.89
2018-10-03T08:50:10.221Z,66.64
2018-10-03T08:51:10.239Z,65.39
2018-10-03T08:52:10.276Z,65.11
2018-10-03T08:53:10.278Z,64.85
2018-10-03T08:54:10.299Z,65.01
2018-10-03T08:55:10.311Z,65.36
2018-10-03T08:56:10.336Z,65.23
2018-10-03T08:57:10.359Z,65.84
2018-10-03T08:58:10.400Z,66.45
2018-10-03T08:59:10.395Z,66.86
2018-10-03T09:00:10.425Z,67.09
2018-10-03T09:01:10.427Z,66.32
2018-10-03T09:02:10.450Z,66.80
2018-10-03T09:03:10.468Z,65.78
2018-10-03T09:04:10.486Z,64.72
2018-10-03T09:05:10.515Z,64.37
2018-10-03T09:06:10.537Z,63.76
2018-10-03T09:07:10.542Z,62.52
2018-10-03T09:08:10.560Z,64.37
2018-10-03T09:09:10.589Z,65.91
2018-10-03T09:10:10.615Z,65.75
2018-10-03T09:11:10.620Z,65.46
2018-10-03T09:12:10.638Z,65.30
2018-10-03T09:13:10.665Z,65.88
2018-10-03T09:14:10.682Z,66.22
2018-10-03T09:15:10.702Z,66.22
2018-10-03T09:16:10.722Z,65.59
2018-10-03T09:17:10.738Z,65.78
2018-10-03T09:18:10.758Z,65.05
2018-10-03T09:19:10.774Z,62.84
2018-10-03T09:20:10.790Z,62.36
2018-10-03T09:21:10.849Z,62.33
2018-10-03T09:22:10.866Z,63.67
2018-10-03T09:23:10.858Z,63.03
2018-10-03T09:24:10.880Z,62.52
2018-10-03T09:25:10.890Z,61.72
2018-10-03T09:26:10.911Z,62.62
2018-10-03T09:27:10.938Z,62.90
2018-10-03T09:28:10.946Z,62.62
2018-10-03T09:29:11.028Z,61.66
2018-10-03T09:30:10.990Z,60.79
2018-10-03T09:31:11.033Z,61.72
2018-10-03T09:32:11.029Z,61.94
2018-10-03T09:33:11.064Z,60.72
2018-10-03T09:34:11.062Z,61.08
2018-10-03T09:35:11.088Z,60.89
2018-10-03T09:36:11.101Z,60.82
2018-10-03T09:37:11.125Z,60.35
2018-10-03T09:38:11.180Z,60.05
2018-10-03T09:39:11.158Z,59.09
2018-10-03T09:40:11.180Z,59.83
2018-10-03T09:41:11.203Z,59.93
2018-10-03T09:42:11.219Z,60.70
2018-10-03T09:43:11.239Z,61.08
2018-10-03T09:44:11.277Z,60.86
2018-10-03T09:45:11.385Z,60.89
2018-10-03T09:46:11.300Z,62.01
2018-10-03T09:47:11.399Z,61.82
2018-10-03T09:48:11.333Z,61.91
2018-10-03T09:49:11.357Z,62.68
2018-10-03T09:50:11.377Z,62.77
2018-10-03T09:51:11.390Z,62.59
2018-10-03T09:52:11.411Z,62.96
2018-10-03T09:53:11.430Z,63.80
2018-10-03T09:54:11.447Z,63.06
2018-10-03T09:55:11.505Z,62.59
2018-10-03T09:56:11.485Z,63.03
2018-10-03T09:57:11.502Z,62.74
2018-10-03T09:58:11.519Z,62.49
2018-10-03T09:59:11.543Z,63.03
2018-10-03T10:00:11.585Z,63.03
2018-10-03T10:01:11.583Z,63.70
2018-10-03T10:02:11.607Z,63.51
2018-10-03T10:03:11.617Z,62.96
2018-10-03T10:04:11.640Z,62.01
2018-10-03T10:05:11.658Z,62.59
2018-10-03T10:06:11.674Z,62.36
2018-10-03T10:07:11.692Z,63.60
2018-10-03T10:08:11.708Z,63.35
2018-10-03T10:09:11.733Z,63.06
2018-10-03T10:10:11.804Z,62.77
2018-10-03T10:11:11.838Z,62.62
2018-10-03T10:12:11.788Z,62.52
2018-10-03T10:13:11.832Z,61.49
2018-10-03T10:14:11.827Z,60.63
2018-10-03T10:15:11.851Z,62.04
2018-10-03T10:16:11.899Z,61.78
2018-10-03T10:17:11.889Z,61.11
2018-10-03T10:18:11.905Z,61.02
2018-10-03T10:19:11.918Z,62.07
2018-10-03T10:20:11.940Z,60.82
2018-10-03T10:21:11.967Z,61.78
2018-10-03T10:22:12.004Z,61.08
2018-10-03T10:23:11.995Z,60.70
2018-10-03T10:24:12.015Z,60.79
2018-10-03T10:25:12.043Z,61.75
2018-10-03T10:26:12.058Z,61.85
2018-10-03T10:27:12.079Z,61.98
2018-10-03T10:28:12.101Z,60.63
2018-10-03T10:29:12.110Z,60.63
2018-10-03T10:30:12.137Z,60.92
2018-10-03T10:31:12.154Z,60.72
2018-10-03T10:32:12.237Z,62.04
2018-10-03T10:33:12.207Z,62.10
2018-10-03T10:34:12.218Z,62.59
2018-10-03T10:35:12.224Z,62.46
2018-10-03T10:36:12.420Z,62.36
2018-10-03T10:37:12.466Z,62.74
2018-10-03T10:38:12.281Z,62.74
2018-10-03T10:39:12.306Z,62.49
2018-10-03T10:40:12.390Z,62.10
2018-10-03T10:41:12.458Z,62.36
2018-10-03T10:42:12.360Z,63.42
2018-10-03T10:43:12.401Z,62.46
2018-10-03T10:44:12.404Z,62.59
2018-10-03T10:45:12.420Z,62.84
2018-10-03T10:46:12.440Z,62.39
2018-10-03T10:47:12.451Z,62.96
2018-10-03T10:48:12.478Z,62.87
2018-10-03T10:49:12.498Z,62.39
2018-10-03T10:50:12.599Z,62.10
2018-10-03T10:51:12.528Z,61.88
2018-10-03T10:52:12.560Z,62.87
2018-10-03T10:53:12.568Z,62.59
2018-10-03T10:54:12.583Z,62.04
2018-10-03T10:55:12.605Z,61.82
2018-10-03T10:56:12.618Z,62.59
2018-10-03T10:57:12.652Z,61.72
2018-10-03T10:58:12.662Z,62.20
2018-10-03T10:59:12.678Z,62.13
2018-10-03T11:00:12.704Z,61.91
2018-10-03T11:01:12.736Z,62.87
2018-10-03T11:02:12.737Z,62.39
2018-10-03T11:03:12.753Z,62.68
2018-10-03T11:04:12.790Z,60.70
2018-10-03T11:05:12.800Z,60.50
2018-10-03T11:06:12.874Z,61.85
2018-10-03T11:07:12.837Z,62.10
2018-10-03T11:08:12.848Z,62.62
2018-10-03T11:09:12.867Z,61.94
2018-10-03T11:10:12.901Z,62.01
2018-10-03T11:11:12.908Z,62.10
2018-10-03T11:12:12.923Z,62.01
2018-10-03T11:13:12.945Z,60.60
2018-10-03T11:14:12.961Z,60.89
2018-10-03T11:15:12.984Z,62.04
2018-10-03T11:16:13.003Z,61.85
2018-10-03T11:17:13.019Z,61.46
2018-10-03T11:18:13.044Z,61.08
2018-10-03T11:19:13.061Z,60.15
2018-10-03T11:20:13.098Z,59.45
2018-10-03T11:21:13.098Z,60.63
2018-10-03T11:22:13.110Z,59.61
2018-10-03T11:23:13.151Z,59.19
2018-10-03T11:24:13.292Z,59.86
2018-10-03T11:25:13.173Z,59.16
2018-10-03T11:26:13.188Z,59.67
2018-10-03T11:27:13.214Z,59.77
2018-10-03T11:28:13.250Z,59.86
2018-10-03T11:29:13.246Z,60.25
2018-10-03T11:30:13.263Z,59.96
2018-10-03T11:31:13.292Z,60.03
2018-10-03T11:32:13.364Z,60.41
2018-10-03T11:33:13.328Z,60.12
2018-10-03T11:34:13.358Z,60.50
2018-10-03T11:35:13.390Z,60.12
2018-10-03T11:36:13.382Z,60.47
2018-10-03T11:37:13.402Z,60.70
2018-10-03T11:38:13.462Z,61.08
2018-10-03T11:39:13.434Z,61.02
2018-10-03T11:40:13.459Z,60.08
2018-10-03T11:41:13.487Z,60.47
2018-10-03T11:42:13.500Z,59.32
2018-10-03T11:43:13.510Z,61.05
2018-10-03T11:44:13.532Z,60.57
2018-10-03T11:45:13.584Z,60.18
2018-10-03T11:46:13.570Z,58.91
2018-10-03T11:47:13.590Z,59.09
2018-10-03T11:48:13.612Z,58.81
2018-10-03T11:49:13.625Z,59.51
2018-10-03T11:50:13.649Z,58.48
2018-10-03T11:51:13.796Z,57.52
2018-10-03T11:52:13.684Z,55.91
2018-10-03T11:53:13.704Z,56.59
2018-10-03T11:54:13.749Z,55.91
2018-10-03T11:55:13.740Z,56.27
2018-10-03T11:56:13.759Z,55.69
2018-10-03T11:57:13.844Z,55.99
2018-10-03T11:58:13.806Z,56.11
2018-10-03T11:59:13.819Z,56.56
2018-10-03T12:00:13.843Z,55.69
2018-10-03T12:01:13.866Z,56.18
2018-10-03T12:02:13.890Z,56.53
2018-10-03T12:03:13.973Z,56.53
2018-10-03T12:04:13.925Z,57.18
2018-10-03T12:05:14.022Z,57.46
2018-10-03T12:06:13.960Z,57.43
2018-10-03T12:07:13.978Z,58.30
2018-10-03T12:08:13.994Z,57.46
2018-10-03T12:09:14.026Z,57.46
2018-10-03T12:10:14.044Z,57.56
2018-10-03T12:11:14.053Z,57.53
2018-10-03T12:12:14.085Z,57.92
2018-10-03T12:13:14.112Z,58.39
2018-10-03T12:14:14.112Z,59.09
2018-10-03T12:15:14.146Z,58.71
2018-10-03T12:16:14.158Z,59.36
2018-10-03T12:17:14.191Z,59.29
2018-10-03T12:18:14.206Z,58.52
2018-10-03T12:19:14.213Z,58.23
2018-10-03T12:20:14.235Z,58.23
2018-10-03T12:21:14.247Z,57.50
2018-10-03T12:22:14.264Z,57.30
2018-10-03T12:23:14.291Z,57.11
2018-10-03T12:24:14.309Z,57.50
2018-10-03T12:25:14.341Z,56.53
2018-10-03T12:26:14.344Z,56.18
2018-10-03T12:27:14.364Z,56.44
2018-10-03T12:28:14.383Z,57.59
2018-10-03T12:29:14.402Z,57.68
2018-10-03T12:30:14.423Z,57.28
2018-10-03T12:31:14.439Z,57.50
2018-10-03T12:32:14.479Z,57.68
2018-10-03T12:33:14.515Z,57.28
2018-10-03T12:34:14.496Z,58.52
2018-10-03T12:35:14.516Z,57.50
2018-10-03T12:36:14.542Z,57.01
2018-10-03T12:37:14.552Z,57.46
2018-10-03T12:38:14.590Z,58.07
2018-10-03T12:39:14.600Z,57.14
2018-10-03T12:40:14.610Z,56.53
2018-10-03T12:41:14.654Z,56.73
2018-10-03T12:42:14.665Z,56.44
2018-10-03T12:43:14.693Z,57.30
2018-10-03T12:44:14.696Z,56.92
2018-10-03T12:45:14.777Z,56.53
2018-10-03T12:46:14.735Z,56.02
2018-10-03T12:47:14.764Z,57.28
2018-10-03T12:48:14.774Z,57.46
2018-10-03T12:49:14.795Z,57.37
2018-10-03T12:50:14.809Z,58.33
2018-10-03T12:51:14.824Z,58.23
2018-10-03T12:52:14.850Z,57.56